Time;durP1;ratioP1;P1;durP2;ratioP2;P2;SDS_P1;SDS_P2;PMS_P1;PMS_P2;Temp;Humidity;BMP_temperature;BMP_pressure;BME280_temperature;BME280_humidity;BME280_pressure;Samples;Min_cycle;Max_cycle;Signal;HPM_P1;HPM_P2
2022/03/17 00:01:12;;;;;;;24.70;17.33;;;10.40;99.90;;;;;;5030330;28;20045;-78
2022/03/17 00:03:38;;;;;;;24.90;18.90;;;10.40;99.90;;;;;;5047602;28;20417;-76
2022/03/17 00:06:05;;;;;;;22.98;17.40;;;10.30;99.90;;;;;;5047710;28;20037;-76
2022/03/17 00:08:31;;;;;;;23.40;18.10;;;10.40;99.90;;;;;;5046750;28;20425;-76
2022/03/17 00:10:57;;;;;;;26.25;19.80;;;10.30;99.90;;;;;;5048051;28;20041;-75
2022/03/17 00:13:22;;;;;;;24.58;19.05;;;10.30;99.90;;;;;;5048022;28;20049;-78
2022/03/17 00:15:48;;;;;;;27.38;17.20;;;10.30;99.90;;;;;;5047546;28;20037;-78
2022/03/17 00:18:14;;;;;;;24.15;17.35;;;10.30;99.90;;;;;;5047547;28;20080;-76
2022/03/17 00:20:39;;;;;;;21.23;16.73;;;10.30;99.90;;;;;;5047328;28;20137;-77
2022/03/17 00:23:05;;;;;;;21.45;18.38;;;10.30;99.90;;;;;;5047095;28;20126;-77
2022/03/17 00:25:31;;;;;;;22.33;18.65;;;10.30;99.90;;;;;;5047377;28;20036;-77
2022/03/17 00:27:57;;;;;;;23.75;18.67;;;10.30;99.90;;;;;;5034774;28;20035;-77
2022/03/17 00:30:23;;;;;;;25.33;18.45;;;10.20;99.90;;;;;;5066266;28;20033;-78
2022/03/17 00:32:48;;;;;;;23.60;17.80;;;10.20;99.90;;;;;;5067388;28;20155;-78
2022/03/17 00:37:59;;;;;;;27.60;18.75;;;10.20;99.90;;;;;;5066499;28;20487;-78
2022/03/17 00:40:25;;;;;;;28.08;18.85;;;10.30;99.90;;;;;;5067774;28;20048;-75
2022/03/17 00:42:51;;;;;;;24.67;17.58;;;10.20;99.90;;;;;;5066195;28;20113;-76
2022/03/17 00:45:17;;;;;;;22.75;18.23;;;10.20;99.90;;;;;;5067447;28;20485;-78
2022/03/17 00:47:43;;;;;;;26.65;18.90;;;10.20;99.90;;;;;;5067490;28;20387;-78
2022/03/17 00:50:10;;;;;;;24.02;18.60;;;10.20;99.90;;;;;;5067066;28;20534;-77
2022/03/17 00:52:36;;;;;;;24.70;18.20;;;10.20;99.90;;;;;;5066051;28;20041;-77
2022/03/17 00:55:06;;;;;;;23.45;18.15;;;10.20;99.90;;;;;;5067437;28;20043;-78
2022/03/17 00:57:33;;;;;;;27.30;19.40;;;10.20;99.90;;;;;;5049645;28;20284;-77
2022/03/17 00:59:58;;;;;;;26.25;19.95;;;10.20;99.90;;;;;;5047157;28;20445;-77
2022/03/17 01:02:24;;;;;;;25.05;19.42;;;10.20;99.90;;;;;;5047607;28;20102;-76
2022/03/17 01:04:49;;;;;;;23.92;19.35;;;10.10;99.90;;;;;;5049652;28;20526;-77
2022/03/17 01:07:15;;;;;;;24.02;19.13;;;10.20;99.90;;;;;;5032881;28;20095;-76
2022/03/17 01:09:41;;;;;;;32.70;20.90;;;10.20;99.90;;;;;;5050145;28;20041;-77
2022/03/17 01:12:07;;;;;;;30.25;20.55;;;10.10;99.90;;;;;;5050621;28;20495;-78
2022/03/17 01:14:32;;;;;;;24.25;20.23;;;10.20;99.90;;;;;;5050544;28;20060;-78
2022/03/17 01:16:58;;;;;;;26.27;21.45;;;10.10;99.90;;;;;;5051429;28;20045;-77
2022/03/17 01:19:23;;;;;;;26.65;20.88;;;10.20;99.90;;;;;;5050850;28;20052;-76
2022/03/17 01:21:50;;;;;;;25.33;19.10;;;10.20;99.90;;;;;;5050298;28;20037;-76
2022/03/17 01:24:16;;;;;;;26.20;19.98;;;10.20;99.90;;;;;;5049709;28;20507;-78
2022/03/17 01:26:42;;;;;;;27.35;21.35;;;10.20;99.90;;;;;;5059899;28;20048;-76
2022/03/17 01:29:08;;;;;;;24.55;19.08;;;10.20;99.90;;;;;;5070829;28;20070;-76
2022/03/17 01:31:34;;;;;;;26.38;19.77;;;10.20;99.90;;;;;;5070303;28;20139;-79
2022/03/17 01:34:00;;;;;;;28.00;21.35;;;10.20;99.90;;;;;;5069467;28;20056;-77
2022/03/17 01:36:26;;;;;;;23.02;20.52;;;10.20;99.90;;;;;;5070493;28;20044;-75
2022/03/17 01:38:52;;;;;;;23.13;18.15;;;10.30;99.90;;;;;;5069772;28;20044;-77
2022/03/17 01:41:18;;;;;;;28.65;20.98;;;10.30;99.90;;;;;;5070359;28;20032;-77
2022/03/17 01:43:43;;;;;;;25.05;17.52;;;10.30;99.90;;;;;;5070263;28;20044;-76
2022/03/17 01:46:11;;;;;;;27.75;20.38;;;10.40;99.90;;;;;;5070311;28;20032;-77
2022/03/17 01:48:37;;;;;;;23.67;20.83;;;10.40;99.90;;;;;;5069643;28;20091;-76
2022/03/17 01:51:03;;;;;;;27.30;19.95;;;10.30;99.90;;;;;;5070352;28;20197;-77
2022/03/17 01:53:29;;;;;;;26.23;21.63;;;10.30;99.90;;;;;;5068672;28;20534;-76
2022/03/17 01:55:57;;;;;;;26.17;20.98;;;10.40;99.90;;;;;;5064239;28;20047;-77
2022/03/17 01:58:24;;;;;;;28.00;20.38;;;10.30;99.90;;;;;;5048799;28;20053;-77
2022/03/17 02:00:51;;;;;;;27.80;21.60;;;10.30;99.90;;;;;;5050357;28;20072;-78
2022/03/17 02:03:17;;;;;;;26.38;20.80;;;10.20;99.90;;;;;;5048573;28;20044;-76
2022/03/17 02:05:43;;;;;;;27.63;22.95;;;10.20;99.90;;;;;;5049873;28;20045;-78
2022/03/17 02:08:10;;;;;;;27.65;23.13;;;10.10;99.90;;;;;;5047909;28;20076;-78
2022/03/17 02:13:21;;;;;;;28.92;21.83;;;10.00;99.90;;;;;;5050142;28;20431;-77
2022/03/17 02:15:51;;;;;;;28.48;22.60;;;10.00;99.90;;;;;;5049921;28;20033;-77
2022/03/17 02:18:17;;;;;;;;;;;10.00;99.90;;;;;;5050523;28;20044;-78
2022/03/17 02:20:43;;;;;;;24.63;20.67;;;10.00;99.90;;;;;;5049059;28;20244;-78
2022/03/17 02:25:57;;;;;;;33.63;24.42;;;10.00;99.90;;;;;;5049919;28;20045;-77
2022/03/17 02:28:26;;;;;;;35.00;23.58;;;10.10;99.90;;;;;;5049932;28;20388;-77
2022/03/17 02:30:52;;;;;;;29.95;22.17;;;10.00;99.90;;;;;;5049791;28;20040;-77
2022/03/17 02:33:18;;;;;;;30.20;22.85;;;10.10;99.90;;;;;;5049113;28;20437;-76
2022/03/17 02:35:49;;;;;;;27.30;22.98;;;10.10;99.90;;;;;;5048900;28;20133;-77
2022/03/17 02:38:16;;;;;;;26.80;22.83;;;10.10;99.90;;;;;;5048409;28;20048;-77
2022/03/17 02:40:44;;;;;;;30.35;22.80;;;10.10;99.90;;;;;;5048961;28;20036;-76
2022/03/17 02:43:11;;;;;;;32.13;24.30;;;10.10;99.90;;;;;;5049393;28;20435;-78
2022/03/17 02:45:37;;;;;;;32.25;25.02;;;10.00;99.90;;;;;;5048853;28;20399;-77
2022/03/17 02:48:04;;;;;;;30.65;24.13;;;10.10;99.90;;;;;;5048643;28;20045;-77
2022/03/17 02:50:30;;;;;;;27.85;23.20;;;10.10;99.90;;;;;;5048840;28;20077;-79
2022/03/17 02:52:57;;;;;;;30.77;24.52;;;10.10;99.90;;;;;;5047999;28;20066;-76
2022/03/17 02:55:23;;;;;;;30.25;23.23;;;10.10;99.90;;;;;;5049008;28;20045;-77
2022/03/17 02:57:49;;;;;;;29.00;22.85;;;10.20;99.90;;;;;;5048579;28;20491;-77
2022/03/17 03:00:15;;;;;;;32.13;26.15;;;10.20;99.90;;;;;;5048967;28;20048;-77
2022/03/17 03:02:43;;;;;;;35.30;23.88;;;10.20;99.90;;;;;;5048658;28;20127;-78
2022/03/17 03:05:09;;;;;;;31.05;26.63;;;10.20;99.90;;;;;;5048871;28;20463;-78
2022/03/17 03:07:35;;;;;;;26.70;22.65;;;10.20;99.90;;;;;;5047636;28;20041;-78
2022/03/17 03:10:01;;;;;;;31.50;24.83;;;10.20;99.90;;;;;;5047206;28;20491;-77
2022/03/17 03:12:27;;;;;;;29.08;24.50;;;10.20;99.90;;;;;;5048457;28;20037;-78
2022/03/17 03:14:53;;;;;;;32.20;25.88;;;10.30;99.90;;;;;;5048531;28;20376;-77
2022/03/17 03:17:20;;;;;;;32.92;24.27;;;10.30;99.90;;;;;;5048908;28;20033;-76
2022/03/17 03:19:47;;;;;;;31.90;26.33;;;10.30;99.90;;;;;;5048398;28;20048;-76
2022/03/17 03:22:12;;;;;;;31.90;24.33;;;10.30;99.90;;;;;;5046425;28;20216;-76
2022/03/17 03:24:38;;;;;;;27.92;24.88;;;10.30;99.90;;;;;;5056447;28;20090;-78
2022/03/17 03:27:05;;;;;;;46.92;27.02;;;10.40;99.90;;;;;;5067895;28;20043;-75
2022/03/17 03:29:31;;;;;;;33.53;26.80;;;10.40;99.90;;;;;;5066693;28;20064;-78
2022/03/17 03:32:03;;;;;;;32.38;26.00;;;10.40;99.90;;;;;;5068120;28;20045;-78
2022/03/17 03:34:30;;;;;;;36.95;28.52;;;10.30;99.90;;;;;;5066992;28;20168;-78
2022/03/17 03:39:40;;;;;;;37.92;30.63;;;10.20;99.90;;;;;;5067720;28;20036;-80
2022/03/17 03:42:07;;;;;;;37.28;30.80;;;10.10;99.90;;;;;;5069158;28;20537;-80
2022/03/17 03:44:34;;;;;;;37.35;31.17;;;10.00;99.90;;;;;;5067989;28;20545;-79
2022/03/17 03:46:59;;;;;;;42.90;33.30;;;10.00;99.90;;;;;;5052665;28;20083;-78
2022/03/17 03:49:25;;;;;;;43.63;34.30;;;10.10;99.90;;;;;;5071141;28;20499;-76
2022/03/17 03:51:51;;;;;;;42.10;32.83;;;10.00;99.90;;;;;;5067291;28;20040;-79
2022/03/17 03:54:17;;;;;;;45.80;35.78;;;10.00;99.90;;;;;;5067879;28;20040;-78
2022/03/17 03:56:48;;;;;;;47.78;37.17;;;10.00;99.90;;;;;;5068333;28;20090;-79
2022/03/17 03:59:20;;;;;;;50.05;35.40;;;10.00;99.90;;;;;;5067759;28;20541;-80
2022/03/17 04:01:54;;;;;;;47.55;37.42;;;10.00;99.90;;;;;;5066505;28;20143;-81
2022/03/17 04:04:20;;;;;;;48.95;36.67;;;10.00;99.90;;;;;;5067808;28;20437;-79
2022/03/17 04:06:48;;;;;;;52.20;38.80;;;9.90;99.90;;;;;;5067208;28;20097;-78
2022/03/17 04:09:16;;;;;;;51.38;40.08;;;10.00;99.90;;;;;;5067894;28;20394;-79
2022/03/17 04:11:42;;;;;;;53.97;41.92;;;10.00;99.90;;;;;;5067762;28;20041;-79
2022/03/17 04:14:09;;;;;;;48.13;38.58;;;10.00;99.90;;;;;;5066739;28;20495;-80
2022/03/17 04:16:35;;;;;;;60.38;43.08;;;10.00;99.90;;;;;;5054828;28;20119;-78
2022/03/17 04:19:01;;;;;;;56.60;40.72;;;10.00;99.90;;;;;;5049063;28;20136;-79
2022/03/17 04:21:27;;;;;;;60.45;41.42;;;10.00;99.90;;;;;;5047673;28;20040;-77
2022/03/17 04:23:53;;;;;;;57.50;40.58;;;10.00;99.90;;;;;;5048122;28;20087;-78
2022/03/17 04:26:19;;;;;;;55.53;40.97;;;10.00;99.90;;;;;;5049621;28;20059;-79
2022/03/17 04:28:44;;;;;;;74.95;42.88;;;10.00;99.90;;;;;;5047444;28;20055;-80
2022/03/17 04:31:10;;;;;;;62.33;44.50;;;10.00;99.90;;;;;;5047024;28;20041;-80
2022/03/17 04:33:35;;;;;;;60.58;43.13;;;9.90;99.90;;;;;;5047257;28;20102;-79
2022/03/17 04:36:02;;;;;;;45.65;33.55;;;10.00;99.90;;;;;;5047622;28;20037;-79
2022/03/17 04:38:28;;;;;;;22.63;17.70;;;9.90;99.90;;;;;;5045570;28;20049;-77
2022/03/17 04:40:54;;;;;;;19.08;13.48;;;9.60;99.90;;;;;;5050604;28;20049;-77
2022/03/17 04:43:19;;;;;;;12.52;10.68;;;9.30;99.90;;;;;;5051489;28;20040;-79
2022/03/17 04:45:46;;;;;;;15.07;10.73;;;9.10;99.90;;;;;;5051591;28;20794;-78
2022/03/17 04:48:12;;;;;;;16.80;12.18;;;9.00;99.90;;;;;;5051420;28;20187;-80
2022/03/17 04:50:38;;;;;;;16.33;11.57;;;9.00;99.90;;;;;;5051402;28;20033;-78
2022/03/17 04:55:48;;;;;;;14.35;11.38;;;8.90;99.90;;;;;;5051295;28;20087;-79
2022/03/17 04:58:14;;;;;;;11.38;9.35;;;8.80;99.90;;;;;;5050990;28;20088;-80
2022/03/17 05:00:41;;;;;;;14.90;10.63;;;8.70;99.90;;;;;;5050686;28;20037;-79
2022/03/17 05:03:08;;;;;;;13.05;11.45;;;8.70;99.90;;;;;;5049959;28;20191;-79
2022/03/17 05:05:33;;;;;;;13.32;11.05;;;8.70;99.90;;;;;;5050710;28;20142;-79
2022/03/17 05:07:59;;;;;;;13.75;9.32;;;8.60;99.90;;;;;;5050320;28;20507;-79
2022/03/17 05:10:24;;;;;;;15.57;11.50;;;8.60;99.90;;;;;;5051551;28;20037;-79
2022/03/17 05:12:50;;;;;;;13.63;10.40;;;8.60;99.90;;;;;;5050709;28;20083;-78
2022/03/17 05:15:16;;;;;;;15.60;10.73;;;8.60;99.90;;;;;;5052441;28;20045;-78
2022/03/17 05:17:42;;;;;;;12.52;10.38;;;8.50;99.90;;;;;;5053683;28;20496;-78
2022/03/17 05:20:12;;;;;;;14.27;10.25;;;8.60;99.90;;;;;;5050521;28;20041;-77
2022/03/17 05:22:42;;;;;;;16.35;12.02;;;8.50;99.90;;;;;;5049730;28;20060;-79
2022/03/17 05:25:09;;;;;;;18.33;13.07;;;8.50;99.90;;;;;;5050586;28;20090;-78
2022/03/17 05:27:39;;;;;;;23.45;14.18;;;8.50;99.90;;;;;;5050251;28;20048;-78
2022/03/17 05:30:06;;;;;;;24.88;14.65;;;8.40;99.90;;;;;;5051037;28;20111;-79
2022/03/17 05:32:32;;;;;;;28.63;14.82;;;8.40;99.90;;;;;;5050317;28;20511;-80
2022/03/17 05:34:58;;;;;;;26.42;14.05;;;8.40;99.90;;;;;;5050344;28;20052;-79
2022/03/17 05:37:23;;;;;;;26.52;13.88;;;8.40;99.90;;;;;;5049943;28;20049;-78
2022/03/17 05:39:50;;;;;;;32.17;17.65;;;8.40;99.90;;;;;;5050258;28;20586;-78
2022/03/17 05:42:15;;;;;;;23.70;13.88;;;8.30;99.90;;;;;;5050247;28;20059;-78
2022/03/17 05:44:41;;;;;;;26.15;14.60;;;8.30;99.90;;;;;;5050246;28;20551;-78
2022/03/17 05:47:07;;;;;;;21.75;11.00;;;8.40;99.90;;;;;;5050014;28;20131;-78
2022/03/17 05:49:32;;;;;;;23.35;12.02;;;8.30;99.90;;;;;;5048761;28;20059;-78
2022/03/17 05:51:59;;;;;;;19.40;9.13;;;8.20;99.90;;;;;;5048600;28;20057;-78
2022/03/17 05:54:25;;;;;;;21.25;9.50;;;8.20;99.90;;;;;;5050657;28;20124;-77
2022/03/17 05:56:51;;;;;;;24.50;8.95;;;8.20;99.90;;;;;;5050285;28;20128;-77
2022/03/17 05:59:16;;;;;;;17.65;8.70;;;8.20;99.90;;;;;;5050133;28;20120;-78
2022/03/17 06:01:42;;;;;;;18.30;7.57;;;8.20;99.90;;;;;;5049607;28;20103;-78
2022/03/17 06:04:08;;;;;;;20.08;6.55;;;8.20;99.90;;;;;;5050113;28;20033;-78
2022/03/17 06:06:34;;;;;;;25.38;7.20;;;8.20;99.90;;;;;;5047503;28;20037;-79
2022/03/17 06:09:01;;;;;;;22.08;5.95;;;8.10;99.90;;;;;;5050002;28;20056;-77
2022/03/17 06:11:28;;;;;;;21.50;6.63;;;8.10;99.90;;;;;;5049416;28;20072;-76
2022/03/17 06:13:56;;;;;;;15.10;5.25;;;8.10;99.90;;;;;;5050307;28;20092;-78
2022/03/17 06:16:23;;;;;;;22.85;6.68;;;8.10;99.90;;;;;;5065347;28;20041;-77
2022/03/17 06:18:49;;;;;;;15.52;5.35;;;8.10;99.90;;;;;;5069668;28;20044;-78
2022/03/17 06:21:14;;;;;;;19.38;5.07;;;8.10;99.90;;;;;;5069602;28;20040;-78
2022/03/17 06:23:40;;;;;;;16.30;4.18;;;8.00;99.90;;;;;;5067399;28;20442;-78
2022/03/17 06:26:05;;;;;;;22.73;6.10;;;8.00;99.90;;;;;;5069276;28;20033;-78
2022/03/17 06:28:31;;;;;;;17.17;3.83;;;8.10;99.90;;;;;;5065554;28;20044;-78
2022/03/17 06:30:57;;;;;;;7.50;3.50;;;8.10;99.90;;;;;;5063118;28;20048;-78
2022/03/17 06:33:22;;;;;;;19.92;5.15;;;8.10;99.90;;;;;;5069562;28;20439;-79
2022/03/17 06:35:48;;;;;;;10.88;3.53;;;7.90;99.90;;;;;;5068905;28;20044;-79
2022/03/17 06:38:14;;;;;;;17.25;3.42;;;7.90;99.90;;;;;;5068226;28;20374;-79
2022/03/17 06:40:41;;;;;;;11.75;3.72;;;8.00;99.90;;;;;;5068755;28;20051;-79
2022/03/17 06:43:07;;;;;;;20.67;4.65;;;8.00;99.90;;;;;;5069316;28;20095;-79
2022/03/17 06:45:33;;;;;;;16.23;4.20;;;8.00;99.90;;;;;;5068756;28;20037;-79
2022/03/17 06:47:59;;;;;;;13.77;2.80;;;7.90;99.90;;;;;;5069017;28;20106;-79
2022/03/17 06:50:25;;;;;;;14.13;2.53;;;7.90;99.90;;;;;;5069330;28;20051;-78
2022/03/17 06:52:52;;;;;;;16.35;2.50;;;7.90;99.90;;;;;;5068082;28;20037;-80
2022/03/17 06:55:18;;;;;;;17.48;3.78;;;7.90;99.90;;;;;;5069010;28;20399;-78
2022/03/17 06:57:44;;;;;;;27.20;6.03;;;7.90;99.90;;;;;;5069040;28;20048;-78
2022/03/17 07:00:12;;;;;;;9.65;2.80;;;7.90;99.90;;;;;;5059304;28;20045;-78
2022/03/17 07:02:38;;;;;;;15.27;4.78;;;7.90;99.90;;;;;;5068289;28;20044;-77
2022/03/17 07:05:05;;;;;;;16.67;3.33;;;7.90;99.90;;;;;;5068763;28;20395;-77
2022/03/17 07:07:30;;;;;;;14.52;3.15;;;7.90;99.90;;;;;;5066636;28;20531;-76
2022/03/17 07:09:56;;;;;;;13.80;2.22;;;7.90;99.90;;;;;;5068605;28;20138;-76
2022/03/17 07:12:22;;;;;;;13.40;3.00;;;7.90;99.90;;;;;;5068573;28;20036;-76
2022/03/17 07:14:48;;;;;;;17.50;3.83;;;8.00;99.90;;;;;;5066729;28;20048;-76
2022/03/17 07:17:17;;;;;;;35.97;4.65;;;7.90;99.90;;;;;;5068638;28;20086;-77
2022/03/17 07:19:42;;;;;;;11.60;2.78;;;8.00;99.90;;;;;;5067915;28;20079;-77
2022/03/17 07:22:08;;;;;;;15.57;2.75;;;7.90;99.90;;;;;;5059143;28;20040;-78
2022/03/17 07:24:33;;;;;;;14.35;2.90;;;7.80;99.90;;;;;;5046843;28;20388;-77
2022/03/17 07:26:59;;;;;;;21.88;4.15;;;7.80;99.90;;;;;;5048091;28;20037;-77
2022/03/17 07:29:25;;;;;;;11.82;3.05;;;7.80;99.90;;;;;;5048581;28;20052;-77
2022/03/17 07:31:54;;;;;;;12.45;3.55;;;7.80;99.90;;;;;;5048256;28;20041;-77
2022/03/17 07:34:20;;;;;;;9.98;3.03;;;7.80;99.90;;;;;;5048027;28;20047;-77
2022/03/17 07:36:46;;;;;;;15.02;3.13;;;7.80;99.90;;;;;;5047360;28;20593;-78
2022/03/17 07:39:11;;;;;;;22.00;4.78;;;7.70;99.90;;;;;;5047759;28;20182;-78
2022/03/17 07:41:37;;;;;;;20.45;3.15;;;7.80;99.90;;;;;;5047474;28;20040;-78
2022/03/17 07:44:03;;;;;;;13.93;3.25;;;7.80;99.90;;;;;;5046984;28;20193;-78
2022/03/17 07:46:28;;;;;;;18.80;3.35;;;7.80;99.90;;;;;;5047562;28;20029;-78
2022/03/17 07:48:54;;;;;;;15.65;2.83;;;7.80;99.90;;;;;;5048274;28;20088;-78
2022/03/17 07:51:20;;;;;;;26.25;5.10;;;7.70;99.90;;;;;;5047081;28;20538;-78
2022/03/17 07:53:46;;;;;;;13.35;2.80;;;7.70;99.90;;;;;;5047582;28;20049;-77
2022/03/17 07:56:13;;;;;;;12.18;2.33;;;7.70;99.90;;;;;;5048105;28;20048;-78
2022/03/17 07:58:39;;;;;;;14.30;2.60;;;7.70;99.90;;;;;;5047595;28;20365;-76
2022/03/17 08:01:05;;;;;;;18.08;2.95;;;7.70;99.90;;;;;;5047840;28;20381;-76
2022/03/17 08:03:31;;;;;;;13.77;2.78;;;7.70;99.90;;;;;;5047545;28;20052;-77
2022/03/17 08:05:57;;;;;;;25.52;4.82;;;7.70;99.90;;;;;;5030193;28;20124;-76
2022/03/17 08:08:23;;;;;;;16.80;3.58;;;7.70;99.90;;;;;;5046730;28;20136;-77
2022/03/17 08:10:49;;;;;;;16.08;4.20;;;7.70;99.90;;;;;;5047339;28;20067;-77
2022/03/17 08:13:15;;;;;;;13.15;3.35;;;7.70;99.90;;;;;;5045741;28;20818;-77
2022/03/17 08:15:41;;;;;;;33.33;4.45;;;7.70;99.90;;;;;;5047041;28;20040;-77
2022/03/17 08:18:08;;;;;;;11.00;3.42;;;7.70;99.90;;;;;;5047482;28;20492;-77
2022/03/17 08:20:40;;;;;;;11.77;4.25;;;7.60;99.90;;;;;;5047299;28;20037;-78
2022/03/17 08:23:07;;;;;;;21.63;3.85;;;7.60;99.90;;;;;;5046689;28;20361;-78
2022/03/17 08:25:34;;;;;;;17.33;3.67;;;7.70;99.90;;;;;;5046938;28;20041;-77
2022/03/17 08:28:02;;;;;;;14.45;3.65;;;7.60;99.90;;;;;;5047647;28;20056;-77
2022/03/17 08:30:29;;;;;;;22.50;3.63;;;7.60;99.90;;;;;;5047271;28;20036;-78
2022/03/17 08:32:55;;;;;;;31.52;4.75;;;7.50;99.90;;;;;;5048925;28;20098;-78
2022/03/17 08:35:20;;;;;;;24.88;4.05;;;7.60;99.90;;;;;;5048073;28;20064;-78
2022/03/17 08:37:46;;;;;;;16.80;3.92;;;7.60;99.90;;;;;;5045081;28;20053;-77
2022/03/17 08:40:14;;;;;;;16.92;4.13;;;7.60;99.90;;;;;;5047429;28;20068;-78
2022/03/17 08:42:41;;;;;;;27.33;4.22;;;7.70;99.90;;;;;;5047469;28;20538;-78
2022/03/17 08:50:42;;;;;;;12.77;2.75;;;8.00;99.90;;;;;;5047088;28;20088;-78
2022/03/17 08:53:08;;;;;;;40.90;5.40;;;8.00;99.90;;;;;;5046623;28;20169;-77
2022/03/17 08:55:36;;;;;;;19.20;2.50;;;8.00;99.90;;;;;;5047079;28;20049;-79
2022/03/17 08:58:02;;;;;;;17.92;4.07;;;7.80;99.90;;;;;;5047286;28;20449;-78
2022/03/17 09:00:27;;;;;;;16.20;3.25;;;7.80;99.90;;;;;;5047016;28;20328;-78
2022/03/17 09:02:55;;;;;;;11.02;2.35;;;7.70;99.90;;;;;;5046110;28;20440;-78
2022/03/17 09:05:21;;;;;;;32.13;5.85;;;7.70;99.90;;;;;;5047208;28;20112;-77
2022/03/17 09:07:46;;;;;;;11.75;2.58;;;7.80;99.90;;;;;;5046607;28;20588;-77
2022/03/17 09:10:12;;;;;;;20.33;2.97;;;8.10;99.90;;;;;;5047023;28;20025;-78
2022/03/17 09:12:38;;;;;;;8.57;2.40;;;8.30;99.90;;;;;;5045678;28;20178;-77
2022/03/17 09:15:05;;;;;;;21.88;3.85;;;8.40;99.90;;;;;;5046052;28;20131;-78
2022/03/17 09:17:31;;;;;;;14.10;2.88;;;8.40;99.90;;;;;;5046675;28;20052;-78
2022/03/17 09:19:57;;;;;;;18.95;3.75;;;8.50;99.90;;;;;;5047130;28;20407;-78
2022/03/17 09:22:22;;;;;;;19.45;3.25;;;8.50;99.90;;;;;;5046841;28;20363;-78
2022/03/17 09:24:48;;;;;;;18.20;2.17;;;8.70;99.90;;;;;;5046897;28;20376;-77
2022/03/17 09:27:17;;;;;;;8.65;2.85;;;8.60;99.90;;;;;;5050367;28;20040;-78
2022/03/17 09:29:43;;;;;;;13.80;2.08;;;8.80;99.90;;;;;;5050474;28;20094;-78
2022/03/17 09:32:09;;;;;;;14.00;2.70;;;8.90;99.90;;;;;;5050990;28;20504;-78
2022/03/17 09:34:36;;;;;;;25.25;4.13;;;8.80;99.90;;;;;;5050146;28;20033;-78
2022/03/17 09:37:02;;;;;;;10.65;1.52;;;8.80;99.90;;;;;;5049900;28;20060;-79
2022/03/17 09:39:45;;;;;;;15.23;3.40;;;9.20;99.90;;;;;;5050205;28;20048;-77
2022/03/17 09:42:20;;;;;;;9.18;2.13;;;9.20;99.90;;;;;;5050463;28;20045;-77
2022/03/17 09:44:53;;;;;;;7.50;1.55;;;9.20;99.90;;;;;;5050739;28;20049;-77
2022/03/17 09:47:24;;;;;;;13.23;3.97;;;9.00;99.90;;;;;;5050352;28;20056;-78
2022/03/17 09:49:52;;;;;;;;;;;9.10;99.90;;;;;;5049838;28;20044;-78
2022/03/17 09:52:20;;;;;;;18.88;1.95;;;9.30;99.90;;;;;;5048213;28;19921;-79
2022/03/17 09:54:47;;;;;;;12.88;3.20;;;9.30;99.90;;;;;;5049893;28;20530;-79
2022/03/17 09:57:16;;;;;;;14.98;1.90;;;9.20;99.90;;;;;;5049964;28;20183;-78
2022/03/17 09:59:43;;;;;;;13.02;2.10;;;9.50;99.90;;;;;;5049549;28;20045;-78
2022/03/17 10:02:15;;;;;;;14.27;2.35;;;9.50;99.90;;;;;;5050084;28;20122;-79
2022/03/17 10:04:46;;;;;;;10.45;2.22;;;9.30;99.90;;;;;;5032295;28;20056;-76
2022/03/17 10:07:12;;;;;;;10.45;2.92;;;9.60;99.90;;;;;;5048823;28;20037;-77
2022/03/17 10:09:38;;;;;;;9.30;1.90;;;9.80;99.90;;;;;;5049685;28;20094;-77
2022/03/17 10:12:06;;;;;;;15.35;3.45;;;9.70;99.90;;;;;;5050136;28;20045;-76
2022/03/17 10:14:53;;;;;;;10.38;2.83;;;9.70;99.90;;;;;;5049647;28;20095;-78
2022/03/17 10:17:34;;;;;;;16.88;3.17;;;9.50;99.90;;;;;;5049507;28;20052;-76
2022/03/17 10:20:15;;;;;;;14.10;2.15;;;9.90;99.90;;;;;;5049909;28;20233;-77
2022/03/17 10:22:46;;;;;;;12.05;2.80;;;10.10;99.90;;;;;;5048485;28;20076;-77
2022/03/17 10:25:14;;;;;;;17.65;4.03;;;10.00;99.90;;;;;;5050978;28;20124;-78
2022/03/17 10:27:45;;;;;;;14.55;2.53;;;9.50;99.90;;;;;;5049786;28;20055;-77
2022/03/17 10:30:14;;;;;;;16.35;2.78;;;9.30;99.90;;;;;;5065055;28;20058;-77
2022/03/17 10:32:54;;;;;;;14.10;4.13;;;9.70;99.90;;;;;;5067901;28;20064;-77
2022/03/17 10:35:24;;;;;;;17.08;2.97;;;9.90;99.90;;;;;;5069480;28;20047;-76
2022/03/17 10:37:50;;;;;;;11.55;2.55;;;9.70;99.90;;;;;;5067561;28;20495;-77
2022/03/17 10:40:16;;;;;;;13.63;2.75;;;9.60;99.90;;;;;;5069441;28;20048;-77
2022/03/17 10:42:41;;;;;;;21.20;4.53;;;9.60;99.90;;;;;;5068807;28;20078;-77
2022/03/17 10:45:07;;;;;;;20.50;3.67;;;9.60;99.90;;;;;;5069200;28;20048;-76
2022/03/17 10:47:38;;;;;;;14.85;3.20;;;9.70;99.90;;;;;;5050971;28;20049;-77
2022/03/17 10:50:16;;;;;;;18.83;3.72;;;9.60;99.90;;;;;;5064223;28;20502;-78
2022/03/17 10:52:56;;;;;;;11.38;2.88;;;9.90;99.90;;;;;;5047715;28;20037;-77
2022/03/17 10:55:32;;;;;;;17.58;4.18;;;9.80;99.90;;;;;;5049049;28;20120;-77
2022/03/17 10:58:13;;;;;;;7.22;2.35;;;9.90;99.90;;;;;;5048952;28;20041;-76
2022/03/17 11:00:56;;;;;;;12.50;3.55;;;9.80;99.90;;;;;;5048362;28;20483;-78
2022/03/17 11:03:23;;;;;;;9.98;3.25;;;9.80;99.90;;;;;;5047936;28;20414;-78
2022/03/17 11:05:51;;;;;;;24.73;4.75;;;9.90;99.90;;;;;;5047248;28;20045;-77
2022/03/17 11:08:18;;;;;;;8.35;2.50;;;9.70;99.90;;;;;;5048922;28;20045;-77
2022/03/17 11:10:44;;;;;;;17.83;2.92;;;9.70;99.90;;;;;;5048620;28;20049;-78
2022/03/17 11:13:11;;;;;;;7.30;2.30;;;9.50;99.90;;;;;;5048689;28;20063;-78
2022/03/17 11:15:48;;;;;;;9.52;2.20;;;9.80;99.90;;;;;;5048215;28;20048;-77
2022/03/17 11:18:21;;;;;;;10.20;1.90;;;10.00;99.90;;;;;;5047058;28;20122;-76
2022/03/17 11:20:47;;;;;;;12.30;3.83;;;10.00;99.90;;;;;;5046375;28;20191;-78
2022/03/17 11:23:21;;;;;;;11.52;3.53;;;9.70;99.90;;;;;;5048384;28;20554;-77
2022/03/17 11:25:58;;;;;;;10.70;1.55;;;9.80;99.90;;;;;;5047932;28;20088;-77
2022/03/17 11:28:32;;;;;;;9.38;2.20;;;9.90;99.90;;;;;;5048469;28;20045;-77
2022/03/17 11:31:05;;;;;;;12.05;2.75;;;10.00;99.90;;;;;;5047958;28;20033;-77
2022/03/17 11:33:39;;;;;;;11.27;2.35;;;10.00;99.90;;;;;;5048068;28;20033;-77
2022/03/17 11:36:08;;;;;;;12.27;3.55;;;10.30;99.90;;;;;;5047469;28;20481;-77
2022/03/17 11:38:38;;;;;;;21.30;4.00;;;10.20;99.90;;;;;;5046875;28;20163;-77
2022/03/17 11:41:09;;;;;;;10.90;2.10;;;10.50;99.90;;;;;;5048413;28;20040;-77
2022/03/17 11:43:47;;;;;;;23.98;3.97;;;10.40;99.90;;;;;;5046901;28;20056;-77
2022/03/17 11:46:18;;;;;;;18.20;3.85;;;10.30;99.90;;;;;;5048168;28;20122;-77
2022/03/17 11:48:46;;;;;;;10.63;2.17;;;10.10;99.90;;;;;;5046747;28;20049;-77
2022/03/17 11:51:15;;;;;;;7.68;2.25;;;10.20;99.90;;;;;;5051802;28;20491;-78
2022/03/17 11:53:49;;;;;;;13.95;3.08;;;10.10;99.90;;;;;;5067451;28;20422;-77
2022/03/17 11:56:43;;;;;;;12.27;3.55;;;10.20;99.90;;;;;;5067110;28;20654;-76
2022/03/17 11:59:09;;;;;;;13.10;4.05;;;10.30;99.90;;;;;;5064471;28;20114;-77
2022/03/17 12:01:43;;;;;;;14.57;2.83;;;10.10;99.90;;;;;;5067944;28;20071;-78
2022/03/17 12:04:30;;;;;;;18.05;2.55;;;9.70;99.90;;;;;;5067792;28;20838;-78
2022/03/17 12:07:10;;;;;;;9.27;2.80;;;9.90;99.90;;;;;;5067182;28;20603;-76
2022/03/17 12:09:36;;;;;;;14.25;3.35;;;10.20;99.90;;;;;;5067693;28;20495;-77
2022/03/17 12:12:14;;;;;;;13.18;3.17;;;10.40;99.90;;;;;;5068494;28;20033;-77
2022/03/17 12:14:52;;;;;;;10.07;2.70;;;10.30;99.90;;;;;;5068333;28;20127;-78
2022/03/17 12:17:19;;;;;;;14.20;2.75;;;10.30;99.90;;;;;;5068377;28;20064;-78
2022/03/17 12:19:51;;;;;;;13.00;2.65;;;10.50;99.90;;;;;;5063624;28;20579;-78
2022/03/17 12:22:31;;;;;;;16.67;2.83;;;10.50;99.90;;;;;;5047231;28;20055;-78
2022/03/17 12:25:03;;;;;;;8.45;1.88;;;10.50;99.90;;;;;;5048633;28;20088;-77
2022/03/17 12:27:30;;;;;;;11.50;3.08;;;10.60;99.90;;;;;;5052494;28;20048;-75
2022/03/17 12:30:02;;;;;;;12.85;3.50;;;10.60;99.90;;;;;;5049995;28;20055;-75
2022/03/17 12:32:30;;;;;;;20.33;4.22;;;10.60;99.90;;;;;;5047192;28;20148;-76
2022/03/17 12:34:57;;;;;;;6.20;1.85;;;10.60;99.90;;;;;;5047820;28;20037;-75
2022/03/17 12:37:29;;;;;;;24.27;3.10;;;10.30;99.90;;;;;;5046701;28;20041;-76
2022/03/17 12:39:57;;;;;;;15.82;2.75;;;10.10;99.90;;;;;;5048065;28;20435;-78
2022/03/17 12:42:24;;;;;;;13.45;2.92;;;10.20;99.90;;;;;;5047818;28;20037;-77
2022/03/17 12:45:09;;;;;;;8.27;2.03;;;10.40;99.90;;;;;;5047271;28;20049;-77
2022/03/17 12:47:37;;;;;;;18.67;3.13;;;10.40;99.90;;;;;;5045551;28;20048;-77
2022/03/17 12:50:08;;;;;;;12.38;3.10;;;10.10;99.90;;;;;;5047392;28;20384;-77
2022/03/17 12:52:35;;;;;;;10.05;2.40;;;9.90;99.90;;;;;;5059750;28;20040;-76
2022/03/17 12:55:04;;;;;;;16.00;2.53;;;10.10;99.90;;;;;;5067301;28;20120;-76
2022/03/17 12:57:31;;;;;;;14.55;3.15;;;10.10;99.90;;;;;;5067175;28;20036;-76
2022/03/17 12:59:58;;;;;;;7.72;1.98;;;10.10;99.90;;;;;;5067340;28;20356;-76